Terminal Aerodrome Forecast
Issued by NWS

Home | Current Version | Previous Version | Graphics & Text | Print | Product List | Glossary On
Versions: 1 2 3 4 5 6 7 8 9 10 11 12 13 14 15 16 17 18 19 20 21 22
000
FTUS43 KGRB 221200 AAA
TAFATW
TAF AMD
KATW 221253Z 2213/2312 21011KT 5SM BR OVC008 WS010/24035KT
     FM221400 21009KT 3SM BR OVC006 WS012/24035KT
     FM222300 20005KT 6SM BR OVC010
     FM230300 19005KT 5SM BR OVC008
     FM230900 15005KT 2SM -RA BR OVC005=

USA.gov is the U.S. government's official web portal to all federal, state and local government web resources and services.